EGHI/SOU METAR and TAF weather

Enter ICAO airport designator
Station Type Date Time Source
EGHI METAR 2020/09/25 07:20 UTC NOAA

EGHI 250720Z 31010KT 270V340 9999 FEW010 08/06 Q1002


Station Type Date Time Source
EGHI Decoded METAR 2020/09/25 07:20 UTC NOAA

Southampton / Weather Centre, United Kingdom (EGHI) 50-54N 001-24W 0M
Sep 25, 2020 - 03:20 AM EDT / 2020.09.25 0720 UTC
Wind: from the NW (310 degrees) at 12 MPH (10 KT) (direction variable):0
Visibility: greater than 7 mile(s):0
Sky conditions: mostly clear
Temperature: 46 F (8 C)
Dew Point: 42 F (6 C)
Relative Humidity: 87%
Pressure (altimeter): 29.59 in. Hg (1002 hPa)
ob: EGHI 250720Z 31010KT 270V340 9999 FEW010 08/06 Q1002
cycle: 7

Station Type Date Time Source
EGHI TAF 2020/02/21 21:54 UTC NOAA

TAF EGHI 210345Z 2021/2123 CNL

Example: see airport list